sensor_id;sensor_type;location;lat;lon;timestamp;temperature;humidity
73643;DHT22;61938;48.652;9.292;2024-03-02T00:00:19;5.60;99.90
73643;DHT22;61938;48.652;9.292;2024-03-02T00:02:47;5.60;99.90
73643;DHT22;61938;48.652;9.292;2024-03-02T00:05:20;5.60;99.90
73643;DHT22;61938;48.652;9.292;2024-03-02T00:07:55;5.60;99.90
73643;DHT22;61938;48.652;9.292;2024-03-02T00:10:36;5.60;99.90
73643;DHT22;61938;48.652;9.292;2024-03-02T00:13:05;5.60;99.90
73643;DHT22;61938;48.652;9.292;2024-03-02T00:15:40;5.50;99.90
73643;DHT22;61938;48.652;9.292;2024-03-02T00:18:14;5.50;99.90
73643;DHT22;61938;48.652;9.292;2024-03-02T00:20:41;5.50;99.90
73643;DHT22;61938;48.652;9.292;2024-03-02T00:23:08;5.50;99.90
73643;DHT22;61938;48.652;9.292;2024-03-02T00:25:39;5.50;99.90
73643;DHT22;61938;48.652;9.292;2024-03-02T00:28:11;5.50;99.90
73643;DHT22;61938;48.652;9.292;2024-03-02T00:30:49;5.50;99.90
73643;DHT22;61938;48.652;9.292;2024-03-02T00:33:16;5.50;99.90
73643;DHT22;61938;48.652;9.292;2024-03-02T00:35:44;5.50;99.90
73643;DHT22;61938;48.652;9.292;2024-03-02T00:38:10;5.50;99.90
73643;DHT22;61938;48.652;9.292;2024-03-02T00:40:35;5.40;99.90
73643;DHT22;61938;48.652;9.292;2024-03-02T00:43:02;5.40;99.90
73643;DHT22;61938;48.652;9.292;2024-03-02T00:45:28;5.40;99.90
73643;DHT22;61938;48.652;9.292;2024-03-02T00:47:54;5.40;99.90
73643;DHT22;61938;48.652;9.292;2024-03-02T00:50:20;5.40;99.90
73643;DHT22;61938;48.652;9.292;2024-03-02T00:52:46;5.40;99.90
73643;DHT22;61938;48.652;9.292;2024-03-02T00:55:14;5.40;99.90
73643;DHT22;61938;48.652;9.292;2024-03-02T00:57:39;5.40;99.90
73643;DHT22;61938;48.652;9.292;2024-03-02T01:00:06;5.30;99.90
73643;DHT22;61938;48.652;9.292;2024-03-02T01:02:35;5.30;99.90
73643;DHT22;61938;48.652;9.292;2024-03-02T01:05:00;5.30;99.90
73643;DHT22;61938;48.652;9.292;2024-03-02T01:07:26;5.30;99.90
73643;DHT22;61938;48.652;9.292;2024-03-02T01:09:52;5.30;99.90
73643;DHT22;61938;48.652;9.292;2024-03-02T01:12:17;5.30;99.90
73643;DHT22;61938;48.652;9.292;2024-03-02T01:14:43;5.30;99.90
73643;DHT22;61938;48.652;9.292;2024-03-02T01:17:08;5.30;99.90
73643;DHT22;61938;48.652;9.292;2024-03-02T01:19:34;5.30;99.90
73643;DHT22;61938;48.652;9.292;2024-03-02T01:21:59;5.30;99.90
73643;DHT22;61938;48.652;9.292;2024-03-02T01:24:25;5.30;99.90
73643;DHT22;61938;48.652;9.292;2024-03-02T01:26:50;5.30;99.90
73643;DHT22;61938;48.652;9.292;2024-03-02T01:29:16;5.20;99.90
73643;DHT22;61938;48.652;9.292;2024-03-02T01:31:41;5.20;99.90
73643;DHT22;61938;48.652;9.292;2024-03-02T01:34:10;5.30;99.90
73643;DHT22;61938;48.652;9.292;2024-03-02T01:36:37;5.20;99.90
73643;DHT22;61938;48.652;9.292;2024-03-02T01:39:08;5.20;99.90
73643;DHT22;61938;48.652;9.292;2024-03-02T01:41:35;5.20;99.90
73643;DHT22;61938;48.652;9.292;2024-03-02T01:44:00;5.10;99.90
73643;DHT22;61938;48.652;9.292;2024-03-02T01:46:26;5.20;99.90
73643;DHT22;61938;48.652;9.292;2024-03-02T01:48:51;5.20;99.90
73643;DHT22;61938;48.652;9.292;2024-03-02T01:51:17;5.20;99.90
73643;DHT22;61938;48.652;9.292;2024-03-02T01:53:42;5.10;99.90
73643;DHT22;61938;48.652;9.292;2024-03-02T01:56:08;5.20;99.90
73643;DHT22;61938;48.652;9.292;2024-03-02T01:58:33;5.10;99.90
73643;DHT22;61938;48.652;9.292;2024-03-02T02:00:59;5.10;99.90
73643;DHT22;61938;48.652;9.292;2024-03-02T02:03:25;5.10;99.90
73643;DHT22;61938;48.652;9.292;2024-03-02T02:05:50;5.10;99.90
73643;DHT22;61938;48.652;9.292;2024-03-02T02:08:16;5.00;99.90
73643;DHT22;61938;48.652;9.292;2024-03-02T02:10:41;5.10;99.90
73643;DHT22;61938;48.652;9.292;2024-03-02T02:13:07;5.00;99.90
73643;DHT22;61938;48.652;9.292;2024-03-02T02:15:33;5.00;99.90
73643;DHT22;61938;48.652;9.292;2024-03-02T02:18:01;5.00;99.90
73643;DHT22;61938;48.652;9.292;2024-03-02T02:20:27;4.90;99.90
73643;DHT22;61938;48.652;9.292;2024-03-02T02:22:58;4.90;99.90
73643;DHT22;61938;48.652;9.292;2024-03-02T02:25:24;4.90;99.90
73643;DHT22;61938;48.652;9.292;2024-03-02T02:27:49;4.80;99.90
73643;DHT22;61938;48.652;9.292;2024-03-02T02:30:19;4.80;99.90
73643;DHT22;61938;48.652;9.292;2024-03-02T02:32:45;4.80;99.90
73643;DHT22;61938;48.652;9.292;2024-03-02T02:35:10;4.80;99.90
73643;DHT22;61938;48.652;9.292;2024-03-02T02:37:36;4.80;99.90
73643;DHT22;61938;48.652;9.292;2024-03-02T02:40:02;4.70;99.90
73643;DHT22;61938;48.652;9.292;2024-03-02T02:42:30;4.70;99.90
73643;DHT22;61938;48.652;9.292;2024-03-02T02:44:55;4.70;99.90
73643;DHT22;61938;48.652;9.292;2024-03-02T02:47:21;4.60;99.90
73643;DHT22;61938;48.652;9.292;2024-03-02T02:49:46;4.60;99.90
73643;DHT22;61938;48.652;9.292;2024-03-02T02:52:12;4.60;99.90
73643;DHT22;61938;48.652;9.292;2024-03-02T02:54:38;4.50;99.90
73643;DHT22;61938;48.652;9.292;2024-03-02T02:57:10;4.50;99.90
73643;DHT22;61938;48.652;9.292;2024-03-02T02:59:35;4.50;99.90
73643;DHT22;61938;48.652;9.292;2024-03-02T03:02:01;4.50;99.90
73643;DHT22;61938;48.652;9.292;2024-03-02T03:04:26;4.40;99.90
73643;DHT22;61938;48.652;9.292;2024-03-02T03:06:52;4.40;99.90
73643;DHT22;61938;48.652;9.292;2024-03-02T03:09:17;4.40;99.90
73643;DHT22;61938;48.652;9.292;2024-03-02T03:11:43;4.50;99.90
73643;DHT22;61938;48.652;9.292;2024-03-02T03:14:08;4.40;99.90
73643;DHT22;61938;48.652;9.292;2024-03-02T03:16:34;4.30;99.90
73643;DHT22;61938;48.652;9.292;2024-03-02T03:18:59;4.30;99.90
73643;DHT22;61938;48.652;9.292;2024-03-02T03:21:25;4.30;99.90
73643;DHT22;61938;48.652;9.292;2024-03-02T03:23:50;4.30;99.90
73643;DHT22;61938;48.652;9.292;2024-03-02T03:26:16;4.30;99.90
73643;DHT22;61938;48.652;9.292;2024-03-02T03:28:41;4.30;99.90
73643;DHT22;61938;48.652;9.292;2024-03-02T03:31:07;4.20;99.90
73643;DHT22;61938;48.652;9.292;2024-03-02T03:33:32;4.20;99.90
73643;DHT22;61938;48.652;9.292;2024-03-02T03:35:58;4.30;99.90
73643;DHT22;61938;48.652;9.292;2024-03-02T03:38:23;4.10;99.90
73643;DHT22;61938;48.652;9.292;2024-03-02T03:40:49;4.10;99.90
73643;DHT22;61938;48.652;9.292;2024-03-02T03:43:14;4.10;99.90
73643;DHT22;61938;48.652;9.292;2024-03-02T03:45:40;4.00;99.90
73643;DHT22;61938;48.652;9.292;2024-03-02T03:48:06;4.00;99.90
73643;DHT22;61938;48.652;9.292;2024-03-02T03:50:32;4.00;99.90
73643;DHT22;61938;48.652;9.292;2024-03-02T03:52:57;4.00;99.90
73643;DHT22;61938;48.652;9.292;2024-03-02T03:55:23;4.00;99.90
73643;DHT22;61938;48.652;9.292;2024-03-02T03:57:48;3.90;99.90
73643;DHT22;61938;48.652;9.292;2024-03-02T04:00:14;3.90;99.90
73643;DHT22;61938;48.652;9.292;2024-03-02T04:02:40;3.90;99.90
73643;DHT22;61938;48.652;9.292;2024-03-02T04:05:06;3.80;99.90
73643;DHT22;61938;48.652;9.292;2024-03-02T04:07:35;3.80;99.90
73643;DHT22;61938;48.652;9.292;2024-03-02T04:10:09;3.70;99.90
73643;DHT22;61938;48.652;9.292;2024-03-02T04:12:36;3.70;99.90
73643;DHT22;61938;48.652;9.292;2024-03-02T04:15:03;3.70;99.90
73643;DHT22;61938;48.652;9.292;2024-03-02T04:17:29;3.70;99.90
73643;DHT22;61938;48.652;9.292;2024-03-02T04:19:56;3.60;99.90
73643;DHT22;61938;48.652;9.292;2024-03-02T04:22:21;3.60;99.90
73643;DHT22;61938;48.652;9.292;2024-03-02T04:24:47;3.60;99.90
73643;DHT22;61938;48.652;9.292;2024-03-02T04:27:12;3.50;99.90
73643;DHT22;61938;48.652;9.292;2024-03-02T04:29:38;3.50;99.90
73643;DHT22;61938;48.652;9.292;2024-03-02T04:32:03;3.50;99.90
73643;DHT22;61938;48.652;9.292;2024-03-02T04:34:29;3.40;99.90
73643;DHT22;61938;48.652;9.292;2024-03-02T04:36:55;3.40;99.90
73643;DHT22;61938;48.652;9.292;2024-03-02T04:39:21;6.00;99.90
73643;DHT22;61938;48.652;9.292;2024-03-02T04:41:46;3.30;99.90
73643;DHT22;61938;48.652;9.292;2024-03-02T04:44:13;3.30;99.90
73643;DHT22;61938;48.652;9.292;2024-03-02T04:46:38;3.30;99.90
73643;DHT22;61938;48.652;9.292;2024-03-02T04:49:04;3.20;99.90
73643;DHT22;61938;48.652;9.292;2024-03-02T04:51:30;3.20;99.90
73643;DHT22;61938;48.652;9.292;2024-03-02T04:53:55;3.20;99.90
73643;DHT22;61938;48.652;9.292;2024-03-02T04:56:20;3.20;99.90
73643;DHT22;61938;48.652;9.292;2024-03-02T04:58:59;3.10;99.90
73643;DHT22;61938;48.652;9.292;2024-03-02T05:01:32;3.10;99.90
73643;DHT22;61938;48.652;9.292;2024-03-02T05:04:05;3.10;99.90
73643;DHT22;61938;48.652;9.292;2024-03-02T05:06:38;3.10;99.90
73643;DHT22;61938;48.652;9.292;2024-03-02T05:09:04;3.00;99.90
73643;DHT22;61938;48.652;9.292;2024-03-02T05:11:30;3.00;99.90
73643;DHT22;61938;48.652;9.292;2024-03-02T05:14:05;3.00;99.90
73643;DHT22;61938;48.652;9.292;2024-03-02T05:16:37;2.90;99.90
73643;DHT22;61938;48.652;9.292;2024-03-02T05:19:07;2.90;99.90
73643;DHT22;61938;48.652;9.292;2024-03-02T05:21:33;2.90;99.90
73643;DHT22;61938;48.652;9.292;2024-03-02T05:23:59;2.80;99.90
73643;DHT22;61938;48.652;9.292;2024-03-02T05:26:24;2.80;99.90
73643;DHT22;61938;48.652;9.292;2024-03-02T05:28:50;2.80;99.90
73643;DHT22;61938;48.652;9.292;2024-03-02T05:31:16;2.70;99.90
73643;DHT22;61938;48.652;9.292;2024-03-02T05:33:42;2.70;99.90
73643;DHT22;61938;48.652;9.292;2024-03-02T05:36:08;2.70;99.90
73643;DHT22;61938;48.652;9.292;2024-03-02T05:38:36;2.70;99.90
73643;DHT22;61938;48.652;9.292;2024-03-02T05:41:02;2.60;99.90
73643;DHT22;61938;48.652;9.292;2024-03-02T05:43:28;2.60;99.90
73643;DHT22;61938;48.652;9.292;2024-03-02T05:45:54;2.60;99.90
73643;DHT22;61938;48.652;9.292;2024-03-02T05:48:19;2.60;99.90
73643;DHT22;61938;48.652;9.292;2024-03-02T05:50:45;2.50;99.90
73643;DHT22;61938;48.652;9.292;2024-03-02T05:53:11;2.50;99.90
73643;DHT22;61938;48.652;9.292;2024-03-02T05:55:36;2.50;99.90
73643;DHT22;61938;48.652;9.292;2024-03-02T05:58:02;2.50;99.90
73643;DHT22;61938;48.652;9.292;2024-03-02T06:00:45;2.50;99.90
73643;DHT22;61938;48.652;9.292;2024-03-02T06:03:11;2.50;99.90
73643;DHT22;61938;48.652;9.292;2024-03-02T06:05:37;2.50;99.90
73643;DHT22;61938;48.652;9.292;2024-03-02T06:08:02;2.40;99.90
73643;DHT22;61938;48.652;9.292;2024-03-02T06:10:28;2.40;99.90
73643;DHT22;61938;48.652;9.292;2024-03-02T06:12:54;2.40;99.90
73643;DHT22;61938;48.652;9.292;2024-03-02T06:15:19;2.40;99.90
73643;DHT22;61938;48.652;9.292;2024-03-02T06:17:45;2.40;99.90
73643;DHT22;61938;48.652;9.292;2024-03-02T06:20:10;2.50;99.90
73643;DHT22;61938;48.652;9.292;2024-03-02T06:22:36;2.40;99.90
73643;DHT22;61938;48.652;9.292;2024-03-02T06:25:02;2.30;99.90
73643;DHT22;61938;48.652;9.292;2024-03-02T06:27:28;2.40;99.90
73643;DHT22;61938;48.652;9.292;2024-03-02T06:29:53;2.40;99.90
73643;DHT22;61938;48.652;9.292;2024-03-02T06:32:20;2.40;99.90
73643;DHT22;61938;48.652;9.292;2024-03-02T06:34:45;2.30;99.90
73643;DHT22;61938;48.652;9.292;2024-03-02T06:37:11;2.40;99.90
73643;DHT22;61938;48.652;9.292;2024-03-02T06:39:36;2.30;99.90
73643;DHT22;61938;48.652;9.292;2024-03-02T06:42:02;2.30;99.90
73643;DHT22;61938;48.652;9.292;2024-03-02T06:44:28;2.30;99.90
73643;DHT22;61938;48.652;9.292;2024-03-02T06:46:54;2.30;99.90
73643;DHT22;61938;48.652;9.292;2024-03-02T06:49:19;2.30;99.90
73643;DHT22;61938;48.652;9.292;2024-03-02T06:51:45;2.30;99.90
73643;DHT22;61938;48.652;9.292;2024-03-02T06:54:10;2.30;99.90
73643;DHT22;61938;48.652;9.292;2024-03-02T06:56:36;2.30;99.90
73643;DHT22;61938;48.652;9.292;2024-03-02T06:59:02;2.40;99.90
73643;DHT22;61938;48.652;9.292;2024-03-02T07:01:28;2.40;99.90
73643;DHT22;61938;48.652;9.292;2024-03-02T07:03:53;2.40;99.90
73643;DHT22;61938;48.652;9.292;2024-03-02T07:06:19;2.40;99.90
73643;DHT22;61938;48.652;9.292;2024-03-02T07:08:45;2.50;99.90
73643;DHT22;61938;48.652;9.292;2024-03-02T07:11:10;2.40;99.90
73643;DHT22;61938;48.652;9.292;2024-03-02T07:13:36;2.50;99.90
73643;DHT22;61938;48.652;9.292;2024-03-02T07:16:01;2.50;99.90
73643;DHT22;61938;48.652;9.292;2024-03-02T07:18:36;2.50;99.90
73643;DHT22;61938;48.652;9.292;2024-03-02T07:21:07;2.50;99.90
73643;DHT22;61938;48.652;9.292;2024-03-02T07:23:40;2.60;99.90
73643;DHT22;61938;48.652;9.292;2024-03-02T07:26:06;2.60;99.90
73643;DHT22;61938;48.652;9.292;2024-03-02T07:28:33;2.60;99.90
73643;DHT22;61938;48.652;9.292;2024-03-02T07:31:02;2.70;99.90
73643;DHT22;61938;48.652;9.292;2024-03-02T07:33:28;2.60;99.90
73643;DHT22;61938;48.652;9.292;2024-03-02T07:35:54;2.70;99.90
73643;DHT22;61938;48.652;9.292;2024-03-02T07:38:28;2.80;99.90
73643;DHT22;61938;48.652;9.292;2024-03-02T07:40:54;2.80;99.90
73643;DHT22;61938;48.652;9.292;2024-03-02T07:43:20;2.90;99.90
73643;DHT22;61938;48.652;9.292;2024-03-02T07:45:47;2.90;99.90
73643;DHT22;61938;48.652;9.292;2024-03-02T07:48:12;3.00;99.90
73643;DHT22;61938;48.652;9.292;2024-03-02T07:50:38;3.10;99.90
73643;DHT22;61938;48.652;9.292;2024-03-02T07:53:05;3.20;99.90
73643;DHT22;61938;48.652;9.292;2024-03-02T07:55:31;3.20;99.90
73643;DHT22;61938;48.652;9.292;2024-03-02T07:57:57;3.30;99.90
73643;DHT22;61938;48.652;9.292;2024-03-02T08:00:23;3.30;99.90
73643;DHT22;61938;48.652;9.292;2024-03-02T08:02:50;3.40;99.90
73643;DHT22;61938;48.652;9.292;2024-03-02T08:05:16;3.40;99.90
73643;DHT22;61938;48.652;9.292;2024-03-02T08:07:43;3.50;99.90
73643;DHT22;61938;48.652;9.292;2024-03-02T08:10:09;3.50;99.90
73643;DHT22;61938;48.652;9.292;2024-03-02T08:12:35;3.60;99.90
73643;DHT22;61938;48.652;9.292;2024-03-02T08:15:00;3.60;99.90
73643;DHT22;61938;48.652;9.292;2024-03-02T08:17:26;3.70;99.90
73643;DHT22;61938;48.652;9.292;2024-03-02T08:19:52;3.70;99.90
73643;DHT22;61938;48.652;9.292;2024-03-02T08:22:18;3.80;99.90
73643;DHT22;61938;48.652;9.292;2024-03-02T08:24:43;3.80;99.90
73643;DHT22;61938;48.652;9.292;2024-03-02T08:27:09;3.90;99.90
73643;DHT22;61938;48.652;9.292;2024-03-02T08:29:35;3.90;99.90
73643;DHT22;61938;48.652;9.292;2024-03-02T08:32:00;4.00;99.90
73643;DHT22;61938;48.652;9.292;2024-03-02T08:34:26;3.90;99.90
73643;DHT22;61938;48.652;9.292;2024-03-02T08:36:52;4.00;99.90
73643;DHT22;61938;48.652;9.292;2024-03-02T08:39:17;4.10;99.90
73643;DHT22;61938;48.652;9.292;2024-03-02T08:41:45;4.10;99.90
73643;DHT22;61938;48.652;9.292;2024-03-02T08:44:11;4.20;99.90
73643;DHT22;61938;48.652;9.292;2024-03-02T08:46:37;4.20;99.90
73643;DHT22;61938;48.652;9.292;2024-03-02T08:49:04;4.30;99.90
73643;DHT22;61938;48.652;9.292;2024-03-02T08:51:30;4.30;99.90
73643;DHT22;61938;48.652;9.292;2024-03-02T08:53:56;4.40;99.90
73643;DHT22;61938;48.652;9.292;2024-03-02T08:56:29;4.40;99.90
73643;DHT22;61938;48.652;9.292;2024-03-02T08:58:54;4.50;99.90
73643;DHT22;61938;48.652;9.292;2024-03-02T09:01:20;4.50;99.90
73643;DHT22;61938;48.652;9.292;2024-03-02T09:03:46;4.60;99.90
73643;DHT22;61938;48.652;9.292;2024-03-02T09:06:12;4.70;99.90
73643;DHT22;61938;48.652;9.292;2024-03-02T09:08:39;4.70;99.90
73643;DHT22;61938;48.652;9.292;2024-03-02T09:11:05;4.80;99.90
73643;DHT22;61938;48.652;9.292;2024-03-02T09:13:31;4.80;99.90
73643;DHT22;61938;48.652;9.292;2024-03-02T09:15:57;4.90;99.90
73643;DHT22;61938;48.652;9.292;2024-03-02T09:18:22;5.00;99.90
73643;DHT22;61938;48.652;9.292;2024-03-02T09:20:48;5.00;99.90
73643;DHT22;61938;48.652;9.292;2024-03-02T09:23:13;5.10;99.90
73643;DHT22;61938;48.652;9.292;2024-03-02T09:25:39;5.20;99.90
73643;DHT22;61938;48.652;9.292;2024-03-02T09:28:05;5.30;99.90
73643;DHT22;61938;48.652;9.292;2024-03-02T09:30:30;5.30;99.90
73643;DHT22;61938;48.652;9.292;2024-03-02T09:32:56;5.40;99.90
73643;DHT22;61938;48.652;9.292;2024-03-02T09:35:21;5.50;99.90
73643;DHT22;61938;48.652;9.292;2024-03-02T09:37:47;5.60;99.90
73643;DHT22;61938;48.652;9.292;2024-03-02T09:40:13;5.60;99.90
73643;DHT22;61938;48.652;9.292;2024-03-02T09:42:40;5.70;99.90
73643;DHT22;61938;48.652;9.292;2024-03-02T09:45:06;5.80;99.90
73643;DHT22;61938;48.652;9.292;2024-03-02T09:47:32;5.80;99.90
73643;DHT22;61938;48.652;9.292;2024-03-02T09:49:58;5.90;99.90
73643;DHT22;61938;48.652;9.292;2024-03-02T09:52:24;6.00;99.90
73643;DHT22;61938;48.652;9.292;2024-03-02T09:54:50;6.10;99.90
73643;DHT22;61938;48.652;9.292;2024-03-02T09:57:15;6.20;99.90
73643;DHT22;61938;48.652;9.292;2024-03-02T09:59:41;6.20;99.90
73643;DHT22;61938;48.652;9.292;2024-03-02T10:02:07;6.30;99.90
73643;DHT22;61938;48.652;9.292;2024-03-02T10:04:33;6.40;99.90
73643;DHT22;61938;48.652;9.292;2024-03-02T10:07:10;6.60;99.90
73643;DHT22;61938;48.652;9.292;2024-03-02T10:09:37;6.70;99.90
73643;DHT22;61938;48.652;9.292;2024-03-02T10:12:06;6.80;99.90
73643;DHT22;61938;48.652;9.292;2024-03-02T10:14:33;6.90;99.90
73643;DHT22;61938;48.652;9.292;2024-03-02T10:17:03;7.00;99.90
73643;DHT22;61938;48.652;9.292;2024-03-02T10:19:29;7.10;99.90
73643;DHT22;61938;48.652;9.292;2024-03-02T10:21:58;7.20;99.90
73643;DHT22;61938;48.652;9.292;2024-03-02T10:24:24;7.30;99.90
73643;DHT22;61938;48.652;9.292;2024-03-02T10:26:51;7.40;99.90
73643;DHT22;61938;48.652;9.292;2024-03-02T10:29:17;7.40;99.90
73643;DHT22;61938;48.652;9.292;2024-03-02T10:31:44;7.50;99.90
73643;DHT22;61938;48.652;9.292;2024-03-02T10:34:11;7.60;99.90
73643;DHT22;61938;48.652;9.292;2024-03-02T10:36:41;7.60;99.90
73643;DHT22;61938;48.652;9.292;2024-03-02T10:39:08;7.80;99.90
73643;DHT22;61938;48.652;9.292;2024-03-02T10:41:38;7.80;99.90
73643;DHT22;61938;48.652;9.292;2024-03-02T10:44:05;8.00;99.90
73643;DHT22;61938;48.652;9.292;2024-03-02T10:46:38;8.10;99.90
73643;DHT22;61938;48.652;9.292;2024-03-02T10:49:05;8.20;99.90
73643;DHT22;61938;48.652;9.292;2024-03-02T10:51:32;8.20;99.90
73643;DHT22;61938;48.652;9.292;2024-03-02T10:53:59;8.30;99.90
73643;DHT22;61938;48.652;9.292;2024-03-02T10:56:33;8.40;99.90
73643;DHT22;61938;48.652;9.292;2024-03-02T10:59:03;8.50;99.90
73643;DHT22;61938;48.652;9.292;2024-03-02T11:01:30;8.50;99.90
73643;DHT22;61938;48.652;9.292;2024-03-02T11:03:57;8.70;99.90
73643;DHT22;61938;48.652;9.292;2024-03-02T11:06:23;8.80;99.90
73643;DHT22;61938;48.652;9.292;2024-03-02T11:08:53;8.90;99.90
73643;DHT22;61938;48.652;9.292;2024-03-02T11:11:30;9.00;99.90
73643;DHT22;61938;48.652;9.292;2024-03-02T11:14:04;9.00;99.90
73643;DHT22;61938;48.652;9.292;2024-03-02T11:16:34;9.20;99.90
73643;DHT22;61938;48.652;9.292;2024-03-02T11:19:04;9.20;99.90
73643;DHT22;61938;48.652;9.292;2024-03-02T11:21:29;9.30;99.90
73643;DHT22;61938;48.652;9.292;2024-03-02T11:23:57;9.40;99.90
73643;DHT22;61938;48.652;9.292;2024-03-02T11:26:22;9.50;99.90
73643;DHT22;61938;48.652;9.292;2024-03-02T11:28:50;9.60;99.90
73643;DHT22;61938;48.652;9.292;2024-03-02T11:31:16;9.80;99.90
73643;DHT22;61938;48.652;9.292;2024-03-02T11:33:41;9.90;99.90
73643;DHT22;61938;48.652;9.292;2024-03-02T11:36:08;10.00;99.90
73643;DHT22;61938;48.652;9.292;2024-03-02T11:38:35;10.10;99.90
73643;DHT22;61938;48.652;9.292;2024-03-02T11:41:07;10.20;99.90
73643;DHT22;61938;48.652;9.292;2024-03-02T11:43:40;10.30;99.90
73643;DHT22;61938;48.652;9.292;2024-03-02T11:46:07;10.40;99.90
73643;DHT22;61938;48.652;9.292;2024-03-02T11:48:34;10.40;99.90
73643;DHT22;61938;48.652;9.292;2024-03-02T11:51:00;10.50;99.90
73643;DHT22;61938;48.652;9.292;2024-03-02T11:53:27;10.60;99.90
73643;DHT22;61938;48.652;9.292;2024-03-02T11:55:58;10.80;99.90
73643;DHT22;61938;48.652;9.292;2024-03-02T11:58:24;10.90;99.90
73643;DHT22;61938;48.652;9.292;2024-03-02T12:00:55;10.90;99.90
73643;DHT22;61938;48.652;9.292;2024-03-02T12:03:23;11.00;99.90
73643;DHT22;61938;48.652;9.292;2024-03-02T12:05:50;11.00;99.90
73643;DHT22;61938;48.652;9.292;2024-03-02T12:08:16;11.00;99.90
73643;DHT22;61938;48.652;9.292;2024-03-02T12:10:42;11.10;99.90
73643;DHT22;61938;48.652;9.292;2024-03-02T12:13:10;11.10;99.90
73643;DHT22;61938;48.652;9.292;2024-03-02T12:15:37;11.20;99.90
73643;DHT22;61938;48.652;9.292;2024-03-02T12:18:03;11.30;99.90
73643;DHT22;61938;48.652;9.292;2024-03-02T12:20:32;11.30;99.90
73643;DHT22;61938;48.652;9.292;2024-03-02T12:23:00;11.30;99.90
73643;DHT22;61938;48.652;9.292;2024-03-02T12:25:26;11.30;99.90
73643;DHT22;61938;48.652;9.292;2024-03-02T12:27:58;11.40;99.90
73643;DHT22;61938;48.652;9.292;2024-03-02T12:30:24;11.40;99.90
73643;DHT22;61938;48.652;9.292;2024-03-02T12:32:52;11.50;99.90
73643;DHT22;61938;48.652;9.292;2024-03-02T12:35:18;11.60;99.90
73643;DHT22;61938;48.652;9.292;2024-03-02T12:37:51;11.60;99.90
73643;DHT22;61938;48.652;9.292;2024-03-02T12:40:18;11.60;99.90
73643;DHT22;61938;48.652;9.292;2024-03-02T12:42:45;12.00;99.90
73643;DHT22;61938;48.652;9.292;2024-03-02T12:45:11;11.80;99.90
73643;DHT22;61938;48.652;9.292;2024-03-02T12:47:39;11.80;99.90
73643;DHT22;61938;48.652;9.292;2024-03-02T12:50:05;11.80;99.90
73643;DHT22;61938;48.652;9.292;2024-03-02T12:52:31;11.90;99.90
73643;DHT22;61938;48.652;9.292;2024-03-02T12:55:00;11.90;99.90
73643;DHT22;61938;48.652;9.292;2024-03-02T12:57:27;11.90;99.90
73643;DHT22;61938;48.652;9.292;2024-03-02T12:59:58;12.00;99.90
73643;DHT22;61938;48.652;9.292;2024-03-02T13:02:23;12.00;99.90
73643;DHT22;61938;48.652;9.292;2024-03-02T13:04:53;12.10;99.90
73643;DHT22;61938;48.652;9.292;2024-03-02T13:07:20;12.10;99.90
73643;DHT22;61938;48.652;9.292;2024-03-02T13:09:46;12.10;99.90
73643;DHT22;61938;48.652;9.292;2024-03-02T13:12:11;12.20;99.90
73643;DHT22;61938;48.652;9.292;2024-03-02T13:14:37;12.30;99.90
73643;DHT22;61938;48.652;9.292;2024-03-02T13:17:03;12.30;99.90
73643;DHT22;61938;48.652;9.292;2024-03-02T13:19:30;12.30;99.90
73643;DHT22;61938;48.652;9.292;2024-03-02T13:21:56;12.30;99.90
73643;DHT22;61938;48.652;9.292;2024-03-02T13:24:22;12.30;99.90
73643;DHT22;61938;48.652;9.292;2024-03-02T13:26:51;11.80;99.90
73643;DHT22;61938;48.652;9.292;2024-03-02T13:29:21;12.30;99.90
73643;DHT22;61938;48.652;9.292;2024-03-02T13:31:46;12.40;99.90
73643;DHT22;61938;48.652;9.292;2024-03-02T13:34:12;12.40;99.90
73643;DHT22;61938;48.652;9.292;2024-03-02T13:36:37;12.50;99.90
73643;DHT22;61938;48.652;9.292;2024-03-02T13:39:04;12.50;99.90
73643;DHT22;61938;48.652;9.292;2024-03-02T13:41:31;12.50;99.90
73643;DHT22;61938;48.652;9.292;2024-03-02T13:43:57;12.50;99.90
73643;DHT22;61938;48.652;9.292;2024-03-02T13:46:26;12.60;99.90
73643;DHT22;61938;48.652;9.292;2024-03-02T13:48:52;12.60;99.90
73643;DHT22;61938;48.652;9.292;2024-03-02T13:51:17;12.70;99.90
73643;DHT22;61938;48.652;9.292;2024-03-02T13:53:43;12.70;99.90
73643;DHT22;61938;48.652;9.292;2024-03-02T13:56:08;12.70;99.90
73643;DHT22;61938;48.652;9.292;2024-03-02T13:58:34;12.70;99.90
73643;DHT22;61938;48.652;9.292;2024-03-02T14:01:00;12.70;99.90
73643;DHT22;61938;48.652;9.292;2024-03-02T14:03:27;12.90;99.90
73643;DHT22;61938;48.652;9.292;2024-03-02T14:05:53;12.90;99.90
73643;DHT22;61938;48.652;9.292;2024-03-02T14:08:18;12.90;99.90
73643;DHT22;61938;48.652;9.292;2024-03-02T14:10:50;13.00;99.90
73643;DHT22;61938;48.652;9.292;2024-03-02T14:13:16;13.00;99.90
73643;DHT22;61938;48.652;9.292;2024-03-02T14:15:42;13.00;99.90
73643;DHT22;61938;48.652;9.292;2024-03-02T14:18:07;13.10;99.90
73643;DHT22;61938;48.652;9.292;2024-03-02T14:20:36;13.20;99.90
73643;DHT22;61938;48.652;9.292;2024-03-02T14:23:02;13.10;99.90
73643;DHT22;61938;48.652;9.292;2024-03-02T14:25:28;13.20;99.90
73643;DHT22;61938;48.652;9.292;2024-03-02T14:27:57;13.20;99.90
73643;DHT22;61938;48.652;9.292;2024-03-02T14:30:23;13.30;99.90
73643;DHT22;61938;48.652;9.292;2024-03-02T14:32:48;13.20;99.90
73643;DHT22;61938;48.652;9.292;2024-03-02T14:35:14;13.20;99.90
73643;DHT22;61938;48.652;9.292;2024-03-02T14:37:40;13.20;99.90
73643;DHT22;61938;48.652;9.292;2024-03-02T14:40:06;13.20;99.90
73643;DHT22;61938;48.652;9.292;2024-03-02T14:42:34;13.20;99.90
73643;DHT22;61938;48.652;9.292;2024-03-02T14:44:59;13.20;99.90
73643;DHT22;61938;48.652;9.292;2024-03-02T14:47:26;13.20;99.90
73643;DHT22;61938;48.652;9.292;2024-03-02T14:49:51;13.20;99.90
73643;DHT22;61938;48.652;9.292;2024-03-02T14:52:17;13.30;99.90
73643;DHT22;61938;48.652;9.292;2024-03-02T14:54:44;13.30;99.90
73643;DHT22;61938;48.652;9.292;2024-03-02T14:57:16;13.20;99.90
73643;DHT22;61938;48.652;9.292;2024-03-02T14:59:42;13.30;99.90
73643;DHT22;61938;48.652;9.292;2024-03-02T15:02:08;13.20;99.90
73643;DHT22;61938;48.652;9.292;2024-03-02T15:04:33;13.20;99.90
73643;DHT22;61938;48.652;9.292;2024-03-02T15:06:59;13.20;99.90
73643;DHT22;61938;48.652;9.292;2024-03-02T15:09:24;13.30;99.90
73643;DHT22;61938;48.652;9.292;2024-03-02T15:11:50;13.20;99.90
73643;DHT22;61938;48.652;9.292;2024-03-02T15:14:15;13.20;99.90
73643;DHT22;61938;48.652;9.292;2024-03-02T15:16:42;13.20;99.90
73643;DHT22;61938;48.652;9.292;2024-03-02T15:19:07;13.30;99.90
73643;DHT22;61938;48.652;9.292;2024-03-02T15:21:33;13.30;99.90
73643;DHT22;61938;48.652;9.292;2024-03-02T15:23:58;13.20;99.90
73643;DHT22;61938;48.652;9.292;2024-03-02T15:26:24;13.30;99.90
73643;DHT22;61938;48.652;9.292;2024-03-02T15:28:50;13.20;99.90
73643;DHT22;61938;48.652;9.292;2024-03-02T15:31:15;13.20;99.90
73643;DHT22;61938;48.652;9.292;2024-03-02T15:33:42;13.20;99.90
73643;DHT22;61938;48.652;9.292;2024-03-02T15:36:08;13.20;99.90
73643;DHT22;61938;48.652;9.292;2024-03-02T15:38:33;13.10;99.90